This is the latest recevied weather packets stored in our database for station/object GW1599. If no packets are shown the sender has not sent any weather packets the latest 10 day(s).
| Time | Temp. | Humidity | Pressure | Rain* | Wind** | Luminosity | Snow |
|---|---|---|---|---|---|---|---|
| 1777597785 | 9.44° C | 81% | 1016.9 hPa | 0 mm | - | - | - |
| 1777593794 | 11.11° C | 71% | 1015.9 hPa | 0 mm | - | - | - |
| 1777593442 | 11.11° C | 71% | 1015.9 hPa | 0 mm | - | - | - |
| 1777593078 | 11.11° C | 69% | 1015.9 hPa | 0 mm | - | - | - |
| 1777592017 | 11.67° C | 67% | 1015.9 hPa | 0 mm | - | - | - |
| 1777589513 | 13.33° C | 67% | 1015.5 hPa | 0 mm | - | - | - |
| 1777588785 | 13.33° C | 62% | 1015.9 hPa | 0 mm | - | - | - |
| 1777586613 | 13.33° C | 70% | 1015.9 hPa | 0 mm | - | - | - |
| 1777586269 | 13.33° C | 68% | 1015.9 hPa | 0 mm | - | - | - |
| 1777584813 | 13.89° C | 66% | 1015.9 hPa | 0 mm | - | - | - |
| 1777581583 | 13.89° C | 62% | 1016.2 hPa | 0 mm | - | - | - |
| 1777577591 | 15.56° C | 61% | 1016.2 hPa | 0 mm | - | - | - |
| 1777576913 | 15° C | 61% | 1015.9 hPa | 0 mm | - | - | - |
| 1777567169 | 13.33° C | 65% | 1016.5 hPa | 0 mm | - | - | - |
| 1777566439 | 12.22° C | 70% | 1016.5 hPa | 0 mm | - | - | - |
| 1777565021 | 12.78° C | 68% | 1016.5 hPa | 0 mm | - | - | - |
| 1777562130 | 13.33° C | 67% | 1016.5 hPa | 0 mm | - | - | - |
| 1777559257 | 12.78° C | 71% | 1016.2 hPa | 0 mm | - | - | - |
| 1777558875 | 12.22° C | 74% | 1016.2 hPa | 0 mm | - | - | - |
| 1777558526 | 11.67° C | 75% | 1016.2 hPa | 0 mm | - | - | - |
| 1777557798 | 12.22° C | 75% | 1015.9 hPa | 0 mm | - | - | - |
| 1777551683 | 8.89° C | 96% | 1014.9 hPa | 0 mm | - | - | - |
| 1777549896 | 7.78° C | 96% | 1014.5 hPa | 0 mm | - | - | - |
| 1777548462 | 7.22° C | 95% | 1014.2 hPa | 0 mm | - | - | - |
| 1777545935 | 7.78° C | 95% | 1013.5 hPa | 0 mm | - | - | - |
* Rain since midnight (hover to see other rain measurements)
** Current wind speed in m/s (hover to see current wind gust speed)